SBSV/SSA METAR and TAF weather

Enter ICAO airport designator
Station Type Date Time Source
SBSV METAR 2020/07/15 09:00 UTC NOAA

SBSV 150900Z VRB02KT 9999 SCT020 SCT070 22/21 Q1017


Station Type Date Time Source
SBSV Decoded METAR 2020/07/15 09:00 UTC NOAA

Salvador Aeroporto , Brazil (SBSV) 12-54S 038-20W 13M
Jul 15, 2020 - 05:00 AM EDT / 2020.07.15 0900 UTC
Wind: Variable at 2 MPH (2 KT):0
Visibility: greater than 7 mile(s):0
Sky conditions: partly cloudy
Temperature: 71 F (22 C)
Dew Point: 69 F (21 C)
Relative Humidity: 94%
Pressure (altimeter): 30.03 in. Hg (1017 hPa)
ob: SBSV 150900Z VRB02KT 9999 SCT020 SCT070 22/21 Q1017
cycle: 9

Station Type Date Time Source
SBSV TAF 2020/07/15 06:57 UTC NOAA

TAF SBSV 150300Z 1506/1606 14007KT 9999 SCT020 TN22/1508Z TX27/1515Z PROB40
TEMPO 1506/1512 30005KT 3000 RA BKN010 FEW025TCU
BECMG 1513/1515 BKN020 FEW025TCU PROB40
TEMPO 1518/1520 3000 RA BKN010 FEW025TCU
BECMG 1519/1521 SCT020 PROB40
TEMPO 1600/1605 32005KT 3000 RA BKN010 FEW025TCU
RMK PDY

Example: see airport list